sensor_id;sensor_type;location;lat;lon;timestamp;pressure;altitude;pressure_sealevel;temperature;humidity
48041;BME280;33815;48.386;11.738;2023-02-23T00:01:23;96158.06;;;2.69;100.00
48041;BME280;33815;48.386;11.738;2023-02-23T00:03:50;96155.50;;;2.69;100.00
48041;BME280;33815;48.386;11.738;2023-02-23T00:06:18;96163.34;;;2.79;100.00
48041;BME280;33815;48.386;11.738;2023-02-23T00:08:44;96157.78;;;2.85;100.00
48041;BME280;33815;48.386;11.738;2023-02-23T00:11:12;96162.19;;;2.83;100.00
48041;BME280;33815;48.386;11.738;2023-02-23T00:13:38;96152.56;;;2.73;100.00
48041;BME280;33815;48.386;11.738;2023-02-23T00:16:11;96160.44;;;2.83;100.00
48041;BME280;33815;48.386;11.738;2023-02-23T00:18:41;96160.25;;;2.86;100.00
48041;BME280;33815;48.386;11.738;2023-02-23T00:21:32;96158.84;;;2.94;100.00
48041;BME280;33815;48.386;11.738;2023-02-23T00:24:01;96160.00;;;2.89;100.00
48041;BME280;33815;48.386;11.738;2023-02-23T00:26:29;96160.25;;;2.86;100.00
48041;BME280;33815;48.386;11.738;2023-02-23T00:28:56;96155.53;;;2.80;100.00
48041;BME280;33815;48.386;11.738;2023-02-23T00:31:23;96160.66;;;2.80;100.00
48041;BME280;33815;48.386;11.738;2023-02-23T00:33:51;96155.41;;;2.82;100.00
48041;BME280;33815;48.386;11.738;2023-02-23T00:36:19;96161.41;;;2.82;100.00
48041;BME280;33815;48.386;11.738;2023-02-23T00:38:45;96162.81;;;2.86;100.00
48041;BME280;33815;48.386;11.738;2023-02-23T00:41:12;96166.88;;;2.89;100.00
48041;BME280;33815;48.386;11.738;2023-02-23T00:43:40;96167.72;;;2.89;100.00
48041;BME280;33815;48.386;11.738;2023-02-23T00:46:18;96165.84;;;2.91;100.00
48041;BME280;33815;48.386;11.738;2023-02-23T00:48:46;96172.91;;;3.01;100.00
48041;BME280;33815;48.386;11.738;2023-02-23T00:51:13;96164.47;;;2.99;100.00
48041;BME280;33815;48.386;11.738;2023-02-23T00:53:42;96157.56;;;2.99;100.00
48041;BME280;33815;48.386;11.738;2023-02-23T00:56:10;96170.34;;;3.12;100.00
48041;BME280;33815;48.386;11.738;2023-02-23T00:58:36;96160.66;;;3.16;100.00
48041;BME280;33815;48.386;11.738;2023-02-23T01:01:05;96157.47;;;3.12;100.00
48041;BME280;33815;48.386;11.738;2023-02-23T01:03:31;96160.31;;;3.20;100.00
48041;BME280;33815;48.386;11.738;2023-02-23T01:06:00;96158.09;;;3.27;100.00
48041;BME280;33815;48.386;11.738;2023-02-23T01:08:29;96159.63;;;3.30;100.00
48041;BME280;33815;48.386;11.738;2023-02-23T01:10:54;96146.03;;;3.28;100.00
48041;BME280;33815;48.386;11.738;2023-02-23T01:13:20;96165.34;;;3.45;100.00
48041;BME280;33815;48.386;11.738;2023-02-23T01:15:47;96162.91;;;3.66;100.00
48041;BME280;33815;48.386;11.738;2023-02-23T01:18:16;96161.59;;;3.71;100.00
48041;BME280;33815;48.386;11.738;2023-02-23T01:20:44;96164.91;;;3.73;100.00
48041;BME280;33815;48.386;11.738;2023-02-23T01:23:12;96153.75;;;3.84;100.00
48041;BME280;33815;48.386;11.738;2023-02-23T01:25:39;96159.75;;;3.85;100.00
48041;BME280;33815;48.386;11.738;2023-02-23T01:28:05;96158.56;;;3.89;100.00
48041;BME280;33815;48.386;11.738;2023-02-23T01:30:30;96141.81;;;3.83;100.00
48041;BME280;33815;48.386;11.738;2023-02-23T01:32:55;96149.28;;;3.98;100.00
48041;BME280;33815;48.386;11.738;2023-02-23T01:35:21;96152.91;;;4.06;100.00
48041;BME280;33815;48.386;11.738;2023-02-23T01:37:46;96150.78;;;4.11;100.00
48041;BME280;33815;48.386;11.738;2023-02-23T01:40:19;96147.59;;;4.19;100.00
48041;BME280;33815;48.386;11.738;2023-02-23T01:43:15;96137.06;;;4.11;100.00
48041;BME280;33815;48.386;11.738;2023-02-23T01:45:41;96140.81;;;4.18;100.00
48041;BME280;33815;48.386;11.738;2023-02-23T01:48:09;96134.91;;;4.27;100.00
48041;BME280;33815;48.386;11.738;2023-02-23T01:50:54;96139.81;;;4.31;100.00
48041;BME280;33815;48.386;11.738;2023-02-23T01:53:20;96148.72;;;4.38;100.00
48041;BME280;33815;48.386;11.738;2023-02-23T01:55:49;96152.19;;;4.48;100.00
48041;BME280;33815;48.386;11.738;2023-02-23T01:58:19;96141.50;;;4.53;100.00
48041;BME280;33815;48.386;11.738;2023-02-23T02:00:52;96134.34;;;4.56;100.00
48041;BME280;33815;48.386;11.738;2023-02-23T02:03:28;96140.66;;;4.63;100.00
48041;BME280;33815;48.386;11.738;2023-02-23T02:05:56;96146.06;;;4.60;100.00
48041;BME280;33815;48.386;11.738;2023-02-23T02:08:23;96133.28;;;4.59;100.00
48041;BME280;33815;48.386;11.738;2023-02-23T02:10:50;96125.09;;;4.54;100.00
48041;BME280;33815;48.386;11.738;2023-02-23T02:13:22;96132.53;;;4.68;100.00
48041;BME280;33815;48.386;11.738;2023-02-23T02:18:40;96133.97;;;4.61;100.00
48041;BME280;33815;48.386;11.738;2023-02-23T02:32:26;96137.81;;;4.67;100.00
48041;BME280;33815;48.386;11.738;2023-02-23T02:40:27;96117.25;;;4.44;100.00
48041;BME280;33815;48.386;11.738;2023-02-23T02:42:59;96125.13;;;4.42;100.00
48041;BME280;33815;48.386;11.738;2023-02-23T02:45:52;96130.66;;;4.38;100.00
48041;BME280;33815;48.386;11.738;2023-02-23T02:48:23;96129.56;;;4.40;100.00
48041;BME280;33815;48.386;11.738;2023-02-23T02:51:12;96131.38;;;4.28;100.00
48041;BME280;33815;48.386;11.738;2023-02-23T02:53:57;96129.41;;;4.21;100.00
48041;BME280;33815;48.386;11.738;2023-02-23T02:56:33;96120.75;;;4.10;100.00
48041;BME280;33815;48.386;11.738;2023-02-23T02:59:06;96131.22;;;4.09;100.00
48041;BME280;33815;48.386;11.738;2023-02-23T03:01:51;96137.28;;;4.08;100.00
48041;BME280;33815;48.386;11.738;2023-02-23T03:04:35;96127.94;;;4.07;100.00
48041;BME280;33815;48.386;11.738;2023-02-23T03:07:23;96138.25;;;4.07;100.00
48041;BME280;33815;48.386;11.738;2023-02-23T03:10:53;96142.94;;;4.02;100.00
48041;BME280;33815;48.386;11.738;2023-02-23T03:20:18;96139.78;;;3.98;100.00
48041;BME280;33815;48.386;11.738;2023-02-23T03:23:15;96141.81;;;3.83;100.00
48041;BME280;33815;48.386;11.738;2023-02-23T03:26:12;96132.91;;;3.76;100.00
48041;BME280;33815;48.386;11.738;2023-02-23T03:29:19;96152.13;;;3.72;100.00
48041;BME280;33815;48.386;11.738;2023-02-23T03:32:17;96151.66;;;3.67;100.00
48041;BME280;33815;48.386;11.738;2023-02-23T03:35:06;96152.94;;;3.61;100.00
48041;BME280;33815;48.386;11.738;2023-02-23T03:38:04;96151.53;;;3.57;100.00
48041;BME280;33815;48.386;11.738;2023-02-23T03:40:50;96142.88;;;3.58;100.00
48041;BME280;33815;48.386;11.738;2023-02-23T03:43:40;96162.91;;;3.66;100.00
48041;BME280;33815;48.386;11.738;2023-02-23T03:46:26;96158.59;;;3.66;100.00
48041;BME280;33815;48.386;11.738;2023-02-23T03:49:11;96155.28;;;3.64;100.00
48041;BME280;33815;48.386;11.738;2023-02-23T03:52:05;96151.78;;;3.54;100.00
48041;BME280;33815;48.386;11.738;2023-02-23T03:54:55;96170.63;;;3.66;100.00
48041;BME280;33815;48.386;11.738;2023-02-23T03:57:44;96159.28;;;3.57;100.00
48041;BME280;33815;48.386;11.738;2023-02-23T04:00:33;96155.97;;;3.43;100.00
48041;BME280;33815;48.386;11.738;2023-02-23T04:03:19;96159.16;;;3.47;100.00
48041;BME280;33815;48.386;11.738;2023-02-23T04:06:07;96162.09;;;3.42;100.00
48041;BME280;33815;48.386;11.738;2023-02-23T04:08:55;96154.22;;;3.33;100.00
48041;BME280;33815;48.386;11.738;2023-02-23T04:11:57;96167.94;;;3.45;100.00
48041;BME280;33815;48.386;11.738;2023-02-23T04:14:55;96169.56;;;3.46;100.00
48041;BME280;33815;48.386;11.738;2023-02-23T04:17:27;96169.47;;;3.47;100.00
48041;BME280;33815;48.386;11.738;2023-02-23T04:19:54;96174.25;;;3.52;100.00
48041;BME280;33815;48.386;11.738;2023-02-23T04:22:21;96179.53;;;3.50;100.00
48041;BME280;33815;48.386;11.738;2023-02-23T04:24:47;96171.22;;;3.47;100.00
48041;BME280;33815;48.386;11.738;2023-02-23T04:27:13;96178.59;;;3.51;100.00
48041;BME280;33815;48.386;11.738;2023-02-23T04:29:38;96173.31;;;3.53;100.00
48041;BME280;33815;48.386;11.738;2023-02-23T04:32:04;96172.84;;;3.48;100.00
48041;BME280;33815;48.386;11.738;2023-02-23T04:34:29;96158.09;;;3.38;100.00
48041;BME280;33815;48.386;11.738;2023-02-23T04:36:54;96170.50;;;3.45;100.00
48041;BME280;33815;48.386;11.738;2023-02-23T04:39:20;96175.66;;;3.45;100.00
48041;BME280;33815;48.386;11.738;2023-02-23T04:41:45;96172.28;;;3.44;100.00
48041;BME280;33815;48.386;11.738;2023-02-23T04:44:13;96166.28;;;3.43;100.00
48041;BME280;33815;48.386;11.738;2023-02-23T04:46:38;96170.50;;;3.45;100.00
48041;BME280;33815;48.386;11.738;2023-02-23T04:49:03;96169.69;;;3.44;100.00
48041;BME280;33815;48.386;11.738;2023-02-23T04:51:28;96171.69;;;3.40;100.00
48041;BME280;33815;48.386;11.738;2023-02-23T04:53:56;96164.31;;;3.36;100.00
48041;BME280;33815;48.386;11.738;2023-02-23T04:56:21;96155.53;;;3.27;100.00
48041;BME280;33815;48.386;11.738;2023-02-23T04:58:47;96175.06;;;3.30;100.00
48041;BME280;33815;48.386;11.738;2023-02-23T05:01:12;96176.13;;;3.27;100.00
48041;BME280;33815;48.386;11.738;2023-02-23T05:03:37;96179.03;;;3.22;100.00
48041;BME280;33815;48.386;11.738;2023-02-23T05:06:03;96178.75;;;3.14;100.00
48041;BME280;33815;48.386;11.738;2023-02-23T05:08:28;96166.81;;;3.02;100.00
48041;BME280;33815;48.386;11.738;2023-02-23T05:10:53;96172.28;;;2.97;100.00
48041;BME280;33815;48.386;11.738;2023-02-23T05:13:19;96174.53;;;2.90;100.00
48041;BME280;33815;48.386;11.738;2023-02-23T05:15:44;96156.56;;;2.78;100.00
48041;BME280;33815;48.386;11.738;2023-02-23T05:18:10;96161.81;;;2.76;100.00
48041;BME280;33815;48.386;11.738;2023-02-23T05:20:35;96164.63;;;2.73;100.00
48041;BME280;33815;48.386;11.738;2023-02-23T05:23:00;96171.06;;;2.79;100.00
48041;BME280;33815;48.386;11.738;2023-02-23T05:25:25;96169.78;;;2.73;100.00
48041;BME280;33815;48.386;11.738;2023-02-23T05:27:51;96183.25;;;2.77;100.00
48041;BME280;33815;48.386;11.738;2023-02-23T05:30:16;96186.38;;;2.69;100.00
48041;BME280;33815;48.386;11.738;2023-02-23T05:32:41;96172.88;;;2.54;100.00
48041;BME280;33815;48.386;11.738;2023-02-23T05:35:07;96174.59;;;2.53;100.00
48041;BME280;33815;48.386;11.738;2023-02-23T05:37:33;96189.50;;;2.61;100.00
48041;BME280;33815;48.386;11.738;2023-02-23T05:39:58;96187.63;;;2.63;100.00
48041;BME280;33815;48.386;11.738;2023-02-23T05:42:24;96195.00;;;2.68;100.00
48041;BME280;33815;48.386;11.738;2023-02-23T05:44:49;96189.97;;;2.66;100.00
48041;BME280;33815;48.386;11.738;2023-02-23T05:47:14;96181.69;;;2.63;100.00
48041;BME280;33815;48.386;11.738;2023-02-23T05:49:40;96176.75;;;2.60;100.00
48041;BME280;33815;48.386;11.738;2023-02-23T05:52:05;96191.63;;;2.67;100.00
48041;BME280;33815;48.386;11.738;2023-02-23T05:54:30;96179.81;;;2.65;100.00
48041;BME280;33815;48.386;11.738;2023-02-23T05:56:56;96183.13;;;2.78;100.00
48041;BME280;33815;48.386;11.738;2023-02-23T05:59:21;96191.59;;;2.91;100.00
48041;BME280;33815;48.386;11.738;2023-02-23T06:01:46;96172.88;;;2.89;100.00
48041;BME280;33815;48.386;11.738;2023-02-23T06:04:11;96186.03;;;3.09;100.00
48041;BME280;33815;48.386;11.738;2023-02-23T06:06:38;96189.56;;;3.19;100.00
48041;BME280;33815;48.386;11.738;2023-02-23T06:09:04;96191.47;;;3.29;100.00
48041;BME280;33815;48.386;11.738;2023-02-23T06:11:29;96181.16;;;3.29;100.00
48041;BME280;33815;48.386;11.738;2023-02-23T06:13:57;96189.38;;;3.45;100.00
48041;BME280;33815;48.386;11.738;2023-02-23T06:16:23;96190.75;;;3.49;100.00
48041;BME280;33815;48.386;11.738;2023-02-23T06:18:48;96194.63;;;3.55;100.00
48041;BME280;33815;48.386;11.738;2023-02-23T06:21:14;96190.06;;;3.58;100.00
48041;BME280;33815;48.386;11.738;2023-02-23T06:23:39;96198.06;;;3.67;100.00
48041;BME280;33815;48.386;11.738;2023-02-23T06:26:04;96199.47;;;3.71;100.00
48041;BME280;33815;48.386;11.738;2023-02-23T06:28:30;96208.72;;;3.73;100.00
48041;BME280;33815;48.386;11.738;2023-02-23T06:30:55;96207.69;;;3.76;100.00
48041;BME280;33815;48.386;11.738;2023-02-23T06:33:21;96215.16;;;3.79;100.00
48041;BME280;33815;48.386;11.738;2023-02-23T06:35:47;96208.84;;;3.83;100.00
48041;BME280;33815;48.386;11.738;2023-02-23T06:38:12;96218.78;;;3.88;100.00
48041;BME280;33815;48.386;11.738;2023-02-23T06:40:38;96220.06;;;3.93;100.00
48041;BME280;33815;48.386;11.738;2023-02-23T06:43:04;96222.06;;;4.01;100.00
48041;BME280;33815;48.386;11.738;2023-02-23T06:45:29;96221.34;;;4.10;100.00
48041;BME280;33815;48.386;11.738;2023-02-23T06:47:56;96219.38;;;4.14;100.00
48041;BME280;33815;48.386;11.738;2023-02-23T06:50:21;96223.09;;;4.33;100.00
48041;BME280;33815;48.386;11.738;2023-02-23T06:52:46;96219.66;;;4.43;100.00
48041;BME280;33815;48.386;11.738;2023-02-23T06:55:12;96217.41;;;4.50;100.00
48041;BME280;33815;48.386;11.738;2023-02-23T06:57:38;96218.22;;;4.62;100.00
48041;BME280;33815;48.386;11.738;2023-02-23T07:00:04;96224.38;;;4.71;100.00
48041;BME280;33815;48.386;11.738;2023-02-23T07:02:29;96219.56;;;4.77;100.00
48041;BME280;33815;48.386;11.738;2023-02-23T07:04:55;96210.63;;;4.82;100.00
48041;BME280;33815;48.386;11.738;2023-02-23T07:07:20;96219.34;;;5.02;100.00
48041;BME280;33815;48.386;11.738;2023-02-23T07:09:46;96227.97;;;5.12;100.00
48041;BME280;33815;48.386;11.738;2023-02-23T07:12:11;96225.84;;;5.17;100.00
48041;BME280;33815;48.386;11.738;2023-02-23T07:14:36;96226.03;;;5.25;100.00
48041;BME280;33815;48.386;11.738;2023-02-23T07:17:03;96227.03;;;5.34;100.00
48041;BME280;33815;48.386;11.738;2023-02-23T07:19:30;96218.34;;;5.35;100.00
48041;BME280;33815;48.386;11.738;2023-02-23T07:21:55;96222.78;;;5.44;100.00
48041;BME280;33815;48.386;11.738;2023-02-23T07:24:21;96227.16;;;5.54;100.00
48041;BME280;33815;48.386;11.738;2023-02-23T07:26:46;96227.03;;;5.55;100.00
48041;BME280;33815;48.386;11.738;2023-02-23T07:29:14;96223.13;;;5.61;100.00
48041;BME280;33815;48.386;11.738;2023-02-23T07:31:39;96228.09;;;5.74;100.00
48041;BME280;33815;48.386;11.738;2023-02-23T07:34:05;96221.47;;;5.81;100.00
48041;BME280;33815;48.386;11.738;2023-02-23T07:36:31;96227.34;;;5.93;100.00
48041;BME280;33815;48.386;11.738;2023-02-23T07:38:56;96227.72;;;6.09;100.00
48041;BME280;33815;48.386;11.738;2023-02-23T07:41:22;96226.50;;;6.13;100.00
48041;BME280;33815;48.386;11.738;2023-02-23T07:43:47;96217.69;;;6.26;100.00
48041;BME280;33815;48.386;11.738;2023-02-23T07:46:12;96219.13;;;6.59;100.00
48041;BME280;33815;48.386;11.738;2023-02-23T07:48:39;96228.53;;;6.80;100.00
48041;BME280;33815;48.386;11.738;2023-02-23T07:51:10;96229.38;;;6.90;100.00
48041;BME280;33815;48.386;11.738;2023-02-23T07:53:36;96227.47;;;6.92;100.00
48041;BME280;33815;48.386;11.738;2023-02-23T07:56:02;96233.31;;;7.04;100.00
48041;BME280;33815;48.386;11.738;2023-02-23T07:58:28;96224.06;;;7.21;100.00
48041;BME280;33815;48.386;11.738;2023-02-23T08:00:54;96234.16;;;7.24;100.00
48041;BME280;33815;48.386;11.738;2023-02-23T08:03:20;96236.13;;;7.60;100.00
48041;BME280;33815;48.386;11.738;2023-02-23T08:05:45;96241.81;;;7.83;100.00
48041;BME280;33815;48.386;11.738;2023-02-23T08:08:11;96225.59;;;7.61;100.00
48041;BME280;33815;48.386;11.738;2023-02-23T08:10:37;96238.53;;;7.81;100.00
48041;BME280;33815;48.386;11.738;2023-02-23T08:13:03;96245.38;;;7.82;100.00
48041;BME280;33815;48.386;11.738;2023-02-23T08:15:28;96243.31;;;7.76;100.00
48041;BME280;33815;48.386;11.738;2023-02-23T08:17:54;96247.25;;;7.80;100.00
48041;BME280;33815;48.386;11.738;2023-02-23T08:20:19;96247.19;;;7.71;100.00
48041;BME280;33815;48.386;11.738;2023-02-23T08:22:44;96243.06;;;7.79;100.00
48041;BME280;33815;48.386;11.738;2023-02-23T08:25:09;96235.78;;;7.82;100.00
48041;BME280;33815;48.386;11.738;2023-02-23T08:27:36;96248.84;;;8.00;100.00
48041;BME280;33815;48.386;11.738;2023-02-23T08:30:02;96235.56;;;8.03;100.00
48041;BME280;33815;48.386;11.738;2023-02-23T08:32:32;96242.38;;;8.14;100.00
48041;BME280;33815;48.386;11.738;2023-02-23T08:34:59;96244.63;;;8.27;100.00
48041;BME280;33815;48.386;11.738;2023-02-23T08:37:26;96246.22;;;8.38;100.00
48041;BME280;33815;48.386;11.738;2023-02-23T08:39:53;96232.16;;;8.40;100.00
48041;BME280;33815;48.386;11.738;2023-02-23T08:42:18;96245.88;;;8.79;100.00
48041;BME280;33815;48.386;11.738;2023-02-23T08:44:43;96243.31;;;9.15;100.00
48041;BME280;33815;48.386;11.738;2023-02-23T08:47:10;96237.03;;;9.25;100.00
48041;BME280;33815;48.386;11.738;2023-02-23T08:49:35;96240.91;;;9.21;100.00
48041;BME280;33815;48.386;11.738;2023-02-23T08:52:00;96233.31;;;9.28;100.00
48041;BME280;33815;48.386;11.738;2023-02-23T08:54:25;96234.34;;;9.35;100.00
48041;BME280;33815;48.386;11.738;2023-02-23T08:56:54;96241.66;;;9.58;100.00
48041;BME280;33815;48.386;11.738;2023-02-23T08:59:20;96233.91;;;9.66;100.00
48041;BME280;33815;48.386;11.738;2023-02-23T09:01:46;96238.69;;;9.71;100.00
48041;BME280;33815;48.386;11.738;2023-02-23T09:04:11;96220.84;;;9.58;100.00
48041;BME280;33815;48.386;11.738;2023-02-23T09:06:37;96230.72;;;9.72;100.00
48041;BME280;33815;48.386;11.738;2023-02-23T09:09:02;96237.41;;;9.75;100.00
48041;BME280;33815;48.386;11.738;2023-02-23T09:11:28;96230.97;;;9.61;100.00
48041;BME280;33815;48.386;11.738;2023-02-23T09:13:53;96216.38;;;9.68;100.00
48041;BME280;33815;48.386;11.738;2023-02-23T09:16:18;96235.44;;;9.77;100.00
48041;BME280;33815;48.386;11.738;2023-02-23T09:18:44;96218.81;;;9.96;100.00
48041;BME280;33815;48.386;11.738;2023-02-23T09:21:14;96219.53;;;10.15;100.00
48041;BME280;33815;48.386;11.738;2023-02-23T09:23:43;96239.06;;;10.45;100.00
48041;BME280;33815;48.386;11.738;2023-02-23T09:26:09;96237.19;;;10.80;99.41
48041;BME280;33815;48.386;11.738;2023-02-23T09:28:35;96236.88;;;10.75;99.67
48041;BME280;33815;48.386;11.738;2023-02-23T09:31:06;96238.66;;;10.83;98.07
48041;BME280;33815;48.386;11.738;2023-02-23T09:33:32;96235.88;;;10.84;98.53
48041;BME280;33815;48.386;11.738;2023-02-23T09:35:57;96239.31;;;10.85;97.50
48041;BME280;33815;48.386;11.738;2023-02-23T09:38:22;96245.34;;;10.85;97.23
48041;BME280;33815;48.386;11.738;2023-02-23T09:40:51;96245.44;;;10.59;98.95
48041;BME280;33815;48.386;11.738;2023-02-23T09:44:13;96237.31;;;10.54;98.85
48041;BME280;33815;48.386;11.738;2023-02-23T09:47:02;96245.16;;;10.62;100.00
48041;BME280;33815;48.386;11.738;2023-02-23T09:49:33;96243.00;;;10.57;100.00
48041;BME280;33815;48.386;11.738;2023-02-23T09:52:00;96247.25;;;10.67;99.13
48041;BME280;33815;48.386;11.738;2023-02-23T09:54:29;96248.84;;;10.51;98.82
48041;BME280;33815;48.386;11.738;2023-02-23T09:56:59;96251.50;;;10.59;99.62
48041;BME280;33815;48.386;11.738;2023-02-23T09:59:28;96250.34;;;10.62;99.42
48041;BME280;33815;48.386;11.738;2023-02-23T10:02:17;96251.69;;;10.83;99.48
48041;BME280;33815;48.386;11.738;2023-02-23T10:05:06;96247.44;;;10.73;98.57
48041;BME280;33815;48.386;11.738;2023-02-23T10:07:43;96245.84;;;10.89;97.09
48041;BME280;33815;48.386;11.738;2023-02-23T10:10:19;96252.41;;;11.01;97.62
48041;BME280;33815;48.386;11.738;2023-02-23T10:13:00;96246.53;;;11.16;97.02
48041;BME280;33815;48.386;11.738;2023-02-23T10:15:36;96244.88;;;11.56;97.17
48041;BME280;33815;48.386;11.738;2023-02-23T10:23:53;96249.13;;;11.98;91.84
48041;BME280;33815;48.386;11.738;2023-02-23T10:26:23;96244.66;;;12.15;90.15
48041;BME280;33815;48.386;11.738;2023-02-23T10:28:51;96253.16;;;12.00;89.36
48041;BME280;33815;48.386;11.738;2023-02-23T10:31:25;96239.47;;;11.82;88.78
48041;BME280;33815;48.386;11.738;2023-02-23T10:33:54;96235.88;;;11.83;89.37
48041;BME280;33815;48.386;11.738;2023-02-23T10:36:32;96235.38;;;11.88;89.74
48041;BME280;33815;48.386;11.738;2023-02-23T10:38:59;96227.25;;;11.82;88.82
48041;BME280;33815;48.386;11.738;2023-02-23T10:41:25;96253.03;;;11.94;88.87
48041;BME280;33815;48.386;11.738;2023-02-23T10:43:50;96246.97;;;11.85;89.04
48041;BME280;33815;48.386;11.738;2023-02-23T10:46:21;96234.06;;;11.92;87.95
48041;BME280;33815;48.386;11.738;2023-02-23T10:48:49;96240.63;;;11.79;89.47
48041;BME280;33815;48.386;11.738;2023-02-23T10:51:24;96245.22;;;11.77;89.94
48041;BME280;33815;48.386;11.738;2023-02-23T10:53:49;96247.47;;;11.80;90.71
48041;BME280;33815;48.386;11.738;2023-02-23T10:56:17;96244.41;;;11.77;91.14
48041;BME280;33815;48.386;11.738;2023-02-23T10:58:48;96243.63;;;11.52;91.46
48041;BME280;33815;48.386;11.738;2023-02-23T11:01:35;96235.91;;;11.50;92.63
48041;BME280;33815;48.386;11.738;2023-02-23T11:04:25;96239.97;;;11.77;91.98
48041;BME280;33815;48.386;11.738;2023-02-23T11:07:05;96248.00;;;11.59;92.19
48041;BME280;33815;48.386;11.738;2023-02-23T11:09:32;96239.19;;;11.36;92.82
48041;BME280;33815;48.386;11.738;2023-02-23T11:14:46;96237.09;;;11.39;92.20
48041;BME280;33815;48.386;11.738;2023-02-23T11:17:31;96226.97;;;11.20;92.64
48041;BME280;33815;48.386;11.738;2023-02-23T11:20:19;96230.22;;;11.13;93.63
48041;BME280;33815;48.386;11.738;2023-02-23T11:22:49;96226.78;;;10.96;94.92
48041;BME280;33815;48.386;11.738;2023-02-23T11:25:24;96226.66;;;11.23;93.42
48041;BME280;33815;48.386;11.738;2023-02-23T11:27:50;96218.19;;;11.12;94.46
48041;BME280;33815;48.386;11.738;2023-02-23T11:30:20;96219.78;;;11.38;93.80
48041;BME280;33815;48.386;11.738;2023-02-23T11:32:51;96214.91;;;11.43;92.54
48041;BME280;33815;48.386;11.738;2023-02-23T11:37:46;96198.44;;;11.26;93.27
48041;BME280;33815;48.386;11.738;2023-02-23T11:40:26;96204.47;;;11.27;93.69
48041;BME280;33815;48.386;11.738;2023-02-23T11:42:54;96193.25;;;11.18;94.51
48041;BME280;33815;48.386;11.738;2023-02-23T11:45:21;96197.16;;;11.22;93.83
48041;BME280;33815;48.386;11.738;2023-02-23T11:47:49;96199.59;;;11.16;94.82
48041;BME280;33815;48.386;11.738;2023-02-23T11:50:33;96198.59;;;11.25;94.10
48041;BME280;33815;48.386;11.738;2023-02-23T11:53:13;96194.53;;;11.22;93.98
48041;BME280;33815;48.386;11.738;2023-02-23T11:55:46;96190.13;;;11.06;95.32
48041;BME280;33815;48.386;11.738;2023-02-23T11:58:26;96194.84;;;11.19;93.79
48041;BME280;33815;48.386;11.738;2023-02-23T12:00:55;96192.41;;;11.18;94.24
48041;BME280;33815;48.386;11.738;2023-02-23T12:03:22;96181.16;;;11.17;93.84
48041;BME280;33815;48.386;11.738;2023-02-23T12:05:52;96171.53;;;11.09;93.71
48041;BME280;33815;48.386;11.738;2023-02-23T12:08:33;96193.06;;;11.36;93.84
48041;BME280;33815;48.386;11.738;2023-02-23T12:11:02;96175.25;;;11.56;93.50
48041;BME280;33815;48.386;11.738;2023-02-23T12:14:15;96192.81;;;11.95;90.55
48041;BME280;33815;48.386;11.738;2023-02-23T12:16:48;96171.91;;;11.87;90.19
48041;BME280;33815;48.386;11.738;2023-02-23T12:19:26;96185.44;;;11.99;88.48
48041;BME280;33815;48.386;11.738;2023-02-23T12:22:03;96190.00;;;12.05;89.06
48041;BME280;33815;48.386;11.738;2023-02-23T12:24:58;96184.69;;;12.22;87.38
48041;BME280;33815;48.386;11.738;2023-02-23T12:27:46;96171.56;;;12.38;86.67
48041;BME280;33815;48.386;11.738;2023-02-23T12:30:18;96169.56;;;12.48;85.99
48041;BME280;33815;48.386;11.738;2023-02-23T12:32:55;96175.19;;;12.60;85.11
48041;BME280;33815;48.386;11.738;2023-02-23T12:35:45;96173.16;;;12.71;81.38
48041;BME280;33815;48.386;11.738;2023-02-23T12:38:27;96170.31;;;12.57;81.45
48041;BME280;33815;48.386;11.738;2023-02-23T12:41:15;96166.81;;;12.65;81.35
48041;BME280;33815;48.386;11.738;2023-02-23T12:43:47;96156.97;;;12.75;81.06
48041;BME280;33815;48.386;11.738;2023-02-23T12:46:23;96167.69;;;12.80;79.88
48041;BME280;33815;48.386;11.738;2023-02-23T12:51:40;96162.91;;;13.07;79.15
48041;BME280;33815;48.386;11.738;2023-02-23T12:54:17;96146.19;;;13.16;77.88
48041;BME280;33815;48.386;11.738;2023-02-23T12:56:49;96157.38;;;13.25;78.07
48041;BME280;33815;48.386;11.738;2023-02-23T13:01:58;96147.53;;;13.35;76.69
48041;BME280;33815;48.386;11.738;2023-02-23T13:04:38;96141.22;;;13.22;77.18
48041;BME280;33815;48.386;11.738;2023-02-23T13:07:30;96146.91;;;13.48;77.48
48041;BME280;33815;48.386;11.738;2023-02-23T13:10:15;96141.84;;;13.47;73.42
48041;BME280;33815;48.386;11.738;2023-02-23T13:15:39;96138.41;;;13.61;73.69
48041;BME280;33815;48.386;11.738;2023-02-23T13:21:10;96140.88;;;12.87;76.65
48041;BME280;33815;48.386;11.738;2023-02-23T13:24:00;96135.84;;;13.00;77.12
48041;BME280;33815;48.386;11.738;2023-02-23T13:26:47;96137.22;;;13.11;76.20
48041;BME280;33815;48.386;11.738;2023-02-23T13:29:32;96132.00;;;13.11;75.78
48041;BME280;33815;48.386;11.738;2023-02-23T13:32:01;96133.09;;;13.16;75.92
48041;BME280;33815;48.386;11.738;2023-02-23T13:34:31;96134.47;;;13.27;75.42
48041;BME280;33815;48.386;11.738;2023-02-23T13:36:59;96135.69;;;13.40;74.21
48041;BME280;33815;48.386;11.738;2023-02-23T13:39:39;96125.56;;;13.36;72.70
48041;BME280;33815;48.386;11.738;2023-02-23T13:42:28;96123.44;;;13.17;73.21
48041;BME280;33815;48.386;11.738;2023-02-23T13:47:46;96130.09;;;12.81;74.35
48041;BME280;33815;48.386;11.738;2023-02-23T13:50:44;96127.19;;;12.76;75.11
48041;BME280;33815;48.386;11.738;2023-02-23T13:54:03;96129.59;;;12.63;75.39
48041;BME280;33815;48.386;11.738;2023-02-23T13:56:33;96118.94;;;12.41;76.52
48041;BME280;33815;48.386;11.738;2023-02-23T13:59:06;96122.81;;;12.45;77.03
48041;BME280;33815;48.386;11.738;2023-02-23T14:01:38;96126.69;;;12.34;77.28
48041;BME280;33815;48.386;11.738;2023-02-23T14:04:14;96120.19;;;12.22;78.42
48041;BME280;33815;48.386;11.738;2023-02-23T14:06:50;96127.81;;;12.00;79.29